createdAt,value
2019-04-10T00:00:39.406Z,69.50
2019-04-10T00:03:08.263Z,72.57
2019-04-10T00:05:36.892Z,66.23
2019-04-10T00:08:06.179Z,71.63
2019-04-10T00:10:34.914Z,71.37
2019-04-10T00:13:04.513Z,69.90
2019-04-10T00:15:33.051Z,70.53
2019-04-10T00:18:01.969Z,66.57
2019-04-10T00:20:30.572Z,70.40
2019-04-10T00:22:59.059Z,65.50
2019-04-10T00:25:28.422Z,70.33
2019-04-10T00:27:57.218Z,69.87
2019-04-10T00:30:25.745Z,67.70
2019-04-10T00:32:54.493Z,69.03
2019-04-10T00:35:23.537Z,77.97
2019-04-10T00:37:52.115Z,75.60
2019-04-10T00:40:21.428Z,74.33
2019-04-10T00:42:49.937Z,68.77
2019-04-10T00:45:19.460Z,70.97
2019-04-10T00:47:48.067Z,67.13
2019-04-10T00:50:16.615Z,67.63
2019-04-10T00:52:46.182Z,71.97
2019-04-10T00:55:15.321Z,69.17
2019-04-10T00:57:43.954Z,73.20
2019-04-10T01:00:12.863Z,70.80
2019-04-10T01:02:41.383Z,71.90
2019-04-10T01:05:10.994Z,70.20
2019-04-10T01:07:42.734Z,72.20
2019-04-10T01:10:10.233Z,73.20
2019-04-10T01:12:38.958Z,71.17
2019-04-10T01:15:07.763Z,69.77
2019-04-10T01:17:36.266Z,74.37
2019-04-10T01:20:07.108Z,73.20
2019-04-10T01:22:36.222Z,66.17
2019-04-10T01:25:08.189Z,67.20
2019-04-10T01:27:36.967Z,68.67
2019-04-10T01:30:07.220Z,68.30
2019-04-10T01:32:36.424Z,67.40
2019-04-10T01:35:06.505Z,66.13
2019-04-10T01:37:47.687Z,74.33
2019-04-10T01:40:07.802Z,69.40
2019-04-10T01:42:36.853Z,67.57
2019-04-10T01:45:09.271Z,65.50
2019-04-10T01:47:37.916Z,70.03
2019-04-10T01:50:06.651Z,67.90
2019-04-10T01:52:35.363Z,72.30
2019-04-10T01:55:17.316Z,71.27
2019-04-10T01:57:36.652Z,70.17
2019-04-10T02:00:08.758Z,68.83
2019-04-10T02:02:51.811Z,71.37
2019-04-10T02:05:20.752Z,68.90
2019-04-10T02:08:01.302Z,68.23
2019-04-10T02:10:20.414Z,69.47
2019-04-10T02:12:49.044Z,68.07
2019-04-10T02:15:17.771Z,70.03
2019-04-10T02:17:46.735Z,69.23
2019-04-10T02:20:15.732Z,71.13
2019-04-10T02:22:44.220Z,70.13
2019-04-10T02:25:13.807Z,66.37
2019-04-10T02:27:42.733Z,63.63
2019-04-10T02:30:14.575Z,65.27
2019-04-10T02:32:45.281Z,69.83
2019-04-10T02:35:16.672Z,65.03
2019-04-10T02:37:43.467Z,70.23
2019-04-10T02:40:12.764Z,69.73
2019-04-10T02:42:43.055Z,61.83
2019-04-10T02:45:14.684Z,69.00
2019-04-10T02:47:43.297Z,65.97
2019-04-10T02:50:14.039Z,69.27
2019-04-10T02:52:43.354Z,66.27
2019-04-10T02:55:12.179Z,64.43
2019-04-10T02:57:41.356Z,65.77
2019-04-10T03:00:13.125Z,64.27
2019-04-10T03:02:41.703Z,63.87
2019-04-10T03:05:10.826Z,66.33
2019-04-10T03:07:40.343Z,66.00
2019-04-10T03:10:21.678Z,68.60
2019-04-10T03:12:41.083Z,65.10
2019-04-10T03:15:12.368Z,60.07
2019-04-10T03:17:40.513Z,69.03
2019-04-10T03:20:10.027Z,66.80
2019-04-10T03:22:39.006Z,66.23
2019-04-10T03:25:08.764Z,64.17
2019-04-10T03:27:38.544Z,64.07
2019-04-10T03:30:10.364Z,66.93
2019-04-10T03:32:45.693Z,64.20
2019-04-10T03:35:15.315Z,60.07
2019-04-10T03:37:44.663Z,61.40
2019-04-10T03:40:13.390Z,65.53
2019-04-10T03:42:41.950Z,66.53
2019-04-10T03:45:11.579Z,65.37
2019-04-10T03:47:40.151Z,64.90
2019-04-10T03:50:09.115Z,68.50
2019-04-10T03:52:37.858Z,63.93
2019-04-10T03:55:06.797Z,67.70
2019-04-10T03:57:36.400Z,62.87
2019-04-10T04:00:07.921Z,67.17
2019-04-10T04:02:36.395Z,66.30
2019-04-10T04:05:06.519Z,68.17
2019-04-10T04:07:35.147Z,64.17
2019-04-10T04:10:04.857Z,69.03
2019-04-10T04:12:33.640Z,66.93
2019-04-10T04:15:03.526Z,67.33
2019-04-10T04:17:32.542Z,73.23
2019-04-10T04:20:02.423Z,61.23
2019-04-10T04:22:31.123Z,64.10
2019-04-10T04:25:00.260Z,66.03
2019-04-10T04:27:29.280Z,63.93
2019-04-10T04:29:57.766Z,62.73
2019-04-10T04:32:26.238Z,66.97
2019-04-10T04:34:54.702Z,64.40
2019-04-10T04:37:23.168Z,60.67
2019-04-10T04:39:52.164Z,62.83
2019-04-10T04:42:20.780Z,65.37
2019-04-10T04:44:49.265Z,61.93
2019-04-10T04:47:18.203Z,68.10
2019-04-10T04:49:46.933Z,65.90
2019-04-10T04:52:16.269Z,65.40
2019-04-10T04:54:45.652Z,69.50
2019-04-10T04:57:14.902Z,68.50
2019-04-10T04:59:43.547Z,64.63
2019-04-10T05:02:12.284Z,65.53
2019-04-10T05:04:41.689Z,66.33
2019-04-10T05:07:10.459Z,68.70
2019-04-10T05:09:40.571Z,69.83
2019-04-10T05:12:09.373Z,69.33
2019-04-10T05:14:37.881Z,68.73
2019-04-10T05:17:06.341Z,66.80
2019-04-10T05:19:34.811Z,66.93
2019-04-10T05:22:03.353Z,67.10
2019-04-10T05:24:32.051Z,71.67
2019-04-10T05:27:01.297Z,68.73
2019-04-10T05:29:31.101Z,64.10
2019-04-10T05:32:00.914Z,65.60
2019-04-10T05:34:29.951Z,67.37
2019-04-10T05:36:58.828Z,70.73
2019-04-10T05:39:39.163Z,71.60
2019-04-10T05:41:57.690Z,73.53
2019-04-10T05:44:26.169Z,68.33
2019-04-10T05:46:54.916Z,70.80
2019-04-10T05:49:24.602Z,60.70
2019-04-10T05:51:53.510Z,67.97
2019-04-10T05:54:22.546Z,60.93
2019-04-10T05:56:51.252Z,63.90
2019-04-10T05:59:19.819Z,64.97
2019-04-10T06:01:48.560Z,59.90
2019-04-10T06:04:17.174Z,63.83
2019-04-10T06:06:46.479Z,62.50
2019-04-10T06:09:16.247Z,63.97
2019-04-10T06:11:45.776Z,61.80
2019-04-10T06:14:15.764Z,60.43
2019-04-10T06:16:44.749Z,60.20
2019-04-10T06:19:13.635Z,62.90
2019-04-10T06:21:42.161Z,61.27
2019-04-10T06:24:10.645Z,60.90
2019-04-10T06:26:39.520Z,64.77
2019-04-10T06:29:08.088Z,64.50
2019-04-10T06:31:36.825Z,63.47
2019-04-10T06:34:06.763Z,63.40
2019-04-10T06:36:35.582Z,64.53
2019-04-10T06:39:06.703Z,60.03
2019-04-10T06:41:35.393Z,63.43
2019-04-10T06:44:03.892Z,58.53
2019-04-10T06:46:32.736Z,59.47
2019-04-10T06:49:02.947Z,62.60
2019-04-10T06:51:31.583Z,63.87
2019-04-10T06:54:05.438Z,66.63
2019-04-10T06:56:31.283Z,64.17
2019-04-10T06:59:00.365Z,62.00
2019-04-10T07:01:39.357Z,60.23
2019-04-10T07:04:04.066Z,63.73
2019-04-10T07:06:44.633Z,64.90
2019-04-10T07:08:59.679Z,60.43
2019-04-10T07:11:30.868Z,64.13
2019-04-10T07:13:59.554Z,65.70
2019-04-10T07:16:32.273Z,61.13
2019-04-10T07:19:01.611Z,63.67
2019-04-10T07:21:30.789Z,64.47
2019-04-10T07:24:04.556Z,61.93
2019-04-10T07:26:38.959Z,68.43
2019-04-10T07:29:00.481Z,58.60
2019-04-10T07:31:30.347Z,62.63
2019-04-10T07:33:59.958Z,59.70
2019-04-10T07:36:28.851Z,64.87
2019-04-10T07:38:57.521Z,59.90
2019-04-10T07:41:26.532Z,58.23
2019-04-10T07:43:56.773Z,61.47
2019-04-10T07:46:26.236Z,64.57
2019-04-10T07:48:54.919Z,60.07
2019-04-10T07:51:23.420Z,63.87
2019-04-10T07:53:51.941Z,63.30
2019-04-10T07:56:20.943Z,68.67
2019-04-10T07:58:49.721Z,64.20
2019-04-10T08:01:18.317Z,62.70
2019-04-10T08:03:47.838Z,62.53
2019-04-10T08:06:16.568Z,61.00
2019-04-10T08:08:45.040Z,64.57
2019-04-10T08:11:13.522Z,62.37
2019-04-10T08:13:41.990Z,61.37
2019-04-10T08:16:10.649Z,60.80
2019-04-10T08:18:39.464Z,62.40
2019-04-10T08:21:08.116Z,61.47
2019-04-10T08:23:36.596Z,61.60
2019-04-10T08:26:05.738Z,66.57
2019-04-10T08:28:35.006Z,66.33
2019-04-10T08:31:04.446Z,64.10
2019-04-10T08:33:33.055Z,66.70
2019-04-10T08:36:01.508Z,61.37
2019-04-10T08:38:30.080Z,64.33
2019-04-10T08:40:58.759Z,64.83
2019-04-10T08:43:27.247Z,65.27
2019-04-10T08:45:56.776Z,64.20
2019-04-10T08:48:27.647Z,61.00
2019-04-10T08:50:56.726Z,60.80
2019-04-10T08:53:27.098Z,60.07
2019-04-10T08:55:56.772Z,62.90
2019-04-10T08:58:25.405Z,64.00
2019-04-10T09:00:54.257Z,62.23
2019-04-10T09:03:22.809Z,58.20
2019-04-10T09:05:51.649Z,61.47
2019-04-10T09:08:21.097Z,62.83
2019-04-10T09:10:50.439Z,62.60
2019-04-10T09:13:20.149Z,60.13
2019-04-10T09:15:49.898Z,64.30
2019-04-10T09:18:18.479Z,66.27
2019-04-10T09:20:47.015Z,63.63
2019-04-10T09:23:25.240Z,62.03
2019-04-10T09:25:45.736Z,60.93
2019-04-10T09:28:14.301Z,58.23
2019-04-10T09:30:42.821Z,61.60
2019-04-10T09:33:21.042Z,59.47
2019-04-10T09:35:41.783Z,61.70
2019-04-10T09:38:10.565Z,57.63
2019-04-10T09:40:40.280Z,65.10
2019-04-10T09:43:09.358Z,61.90
2019-04-10T09:45:39.301Z,61.43
2019-04-10T09:48:08.521Z,59.97
2019-04-10T09:50:37.120Z,60.70
2019-04-10T09:53:05.667Z,66.03
2019-04-10T09:55:34.227Z,61.90
2019-04-10T09:58:02.771Z,67.20
2019-04-10T10:00:33.957Z,62.83
2019-04-10T10:03:03.474Z,61.43
2019-04-10T10:05:32.722Z,61.87
2019-04-10T10:08:02.215Z,60.63
2019-04-10T10:10:32.885Z,61.23
2019-04-10T10:13:01.278Z,65.13
2019-04-10T10:15:29.827Z,66.43
2019-04-10T10:17:59.243Z,68.07
2019-04-10T10:20:27.928Z,61.97
2019-04-10T10:22:57.820Z,62.60
2019-04-10T10:25:26.963Z,65.17
2019-04-10T10:27:56.553Z,62.63
2019-04-10T10:30:25.203Z,62.63
2019-04-10T10:32:53.730Z,62.37
2019-04-10T10:35:23.146Z,64.77
2019-04-10T10:37:52.147Z,63.83
2019-04-10T10:40:20.617Z,62.20
2019-04-10T10:42:49.075Z,67.17
2019-04-10T10:45:18.538Z,65.57
2019-04-10T10:47:48.478Z,61.10
2019-04-10T10:50:17.293Z,64.10
2019-04-10T10:52:45.916Z,64.23
2019-04-10T10:55:15.610Z,68.17
2019-04-10T10:57:44.217Z,62.77
2019-04-10T11:00:13.369Z,63.40
2019-04-10T11:02:41.854Z,61.43
2019-04-10T11:05:10.745Z,63.77
2019-04-10T11:07:40.409Z,60.30
2019-04-10T11:10:10.670Z,62.93
2019-04-10T11:12:39.213Z,67.43
2019-04-10T11:15:08.600Z,63.40
2019-04-10T11:17:38.520Z,63.70
2019-04-10T11:20:12.653Z,63.03
2019-04-10T11:22:42.331Z,62.47
2019-04-10T11:25:12.151Z,65.90
2019-04-10T11:27:42.067Z,66.33
2019-04-10T11:30:12.804Z,62.37
2019-04-10T11:32:42.310Z,67.60
2019-04-10T11:35:11.253Z,69.43
2019-04-10T11:40:12.474Z,66.90
2019-04-10T11:42:42.774Z,67.70
2019-04-10T11:45:16.184Z,64.80
2019-04-10T11:47:42.587Z,67.87
2019-04-10T11:52:49.006Z,67.13
2019-04-10T11:55:19.788Z,71.20
2019-04-10T11:57:47.192Z,66.00
2019-04-10T12:02:49.626Z,65.60
2019-04-10T12:12:48.124Z,66.63
2019-04-10T12:15:17.235Z,68.07
2019-04-10T12:17:46.500Z,67.67
2019-04-10T12:20:16.439Z,66.70
2019-04-10T12:22:46.214Z,66.90
2019-04-10T12:25:15.515Z,66.67
2019-04-10T12:27:45.318Z,64.93
2019-04-10T12:30:15.278Z,65.77
2019-04-10T12:32:45.901Z,64.33
2019-04-10T12:35:15.049Z,60.03
2019-04-10T12:37:43.788Z,61.80
2019-04-10T12:40:12.400Z,65.20
2019-04-10T12:42:40.900Z,60.73
2019-04-10T12:45:10.207Z,62.80
2019-04-10T12:47:39.742Z,64.37
2019-04-10T12:50:08.954Z,61.00
2019-04-10T12:52:38.699Z,60.63
2019-04-10T12:55:08.146Z,57.13
2019-04-10T12:57:37.163Z,63.67
2019-04-10T13:00:09.709Z,58.80
2019-04-10T13:02:38.657Z,62.77
2019-04-10T13:05:07.450Z,57.70
2019-04-10T13:07:36.004Z,56.40
2019-04-10T13:10:06.609Z,57.37
2019-04-10T13:12:35.476Z,57.80
2019-04-10T13:15:07.460Z,55.03
2019-04-10T13:17:36.181Z,58.10
2019-04-10T13:20:10.631Z,54.93
2019-04-10T13:22:40.116Z,53.77
2019-04-10T13:25:10.135Z,52.60
2019-04-10T13:27:39.048Z,52.43
2019-04-10T13:30:12.919Z,55.63
2019-04-10T13:32:40.713Z,52.37
2019-04-10T13:35:10.354Z,51.07
2019-04-10T13:37:39.003Z,48.43
2019-04-10T13:40:08.769Z,46.13
2019-04-10T13:42:37.596Z,48.17
2019-04-10T13:45:09.801Z,51.57
2019-04-10T13:47:38.687Z,46.97
2019-04-10T13:50:08.624Z,45.53
2019-04-10T13:52:38.901Z,44.93
2019-04-10T13:55:08.899Z,45.23
2019-04-10T13:57:39.222Z,43.83
2019-04-10T14:00:11.283Z,46.83
2019-04-10T14:02:40.195Z,42.83
2019-04-10T14:05:13.814Z,44.73
2019-04-10T14:07:42.360Z,43.07
2019-04-10T14:10:12.505Z,44.33
2019-04-10T14:12:41.011Z,44.87
2019-04-10T14:15:09.871Z,41.83
2019-04-10T14:17:38.789Z,42.87
2019-04-10T14:20:07.883Z,42.90
2019-04-10T14:22:38.388Z,39.37
2019-04-10T14:25:09.588Z,46.37
2019-04-10T14:27:38.665Z,42.63
2019-04-10T14:30:11.209Z,43.30
2019-04-10T14:32:40.054Z,41.73
2019-04-10T14:35:09.791Z,44.37
2019-04-10T14:37:38.517Z,40.93
2019-04-10T14:40:09.536Z,41.73
2019-04-10T14:42:38.405Z,44.20
2019-04-10T14:45:09.047Z,40.33
2019-04-10T14:47:39.188Z,39.97
2019-04-10T14:50:07.758Z,40.90
2019-04-10T14:52:37.160Z,43.73
2019-04-10T14:55:06.361Z,41.50
2019-04-10T14:57:35.003Z,40.97
2019-04-10T15:00:08.564Z,42.13
2019-04-10T15:02:37.151Z,40.60
2019-04-10T15:05:08.046Z,43.73
2019-04-10T15:07:37.290Z,44.13
2019-04-10T15:10:06.624Z,40.70
2019-04-10T15:12:35.429Z,40.30
2019-04-10T15:15:04.837Z,43.80
2019-04-10T15:17:33.427Z,42.30
2019-04-10T15:20:01.995Z,44.53
2019-04-10T15:22:30.498Z,41.73
2019-04-10T15:25:01.408Z,42.13
2019-04-10T15:27:30.370Z,41.47
2019-04-10T15:29:58.858Z,39.80
2019-04-10T15:32:27.394Z,40.80
2019-04-10T15:34:55.950Z,43.30
2019-04-10T15:37:24.920Z,42.13
2019-04-10T15:39:53.918Z,40.90
2019-04-10T15:42:22.495Z,45.33
2019-04-10T15:44:50.978Z,43.77
2019-04-10T15:47:23.011Z,45.50
2019-04-10T15:49:49.753Z,42.43
2019-04-10T15:52:18.266Z,41.87
2019-04-10T15:54:47.878Z,42.97
2019-04-10T15:57:16.553Z,42.97
2019-04-10T15:59:46.317Z,42.70
2019-04-10T16:02:15.391Z,43.87
2019-04-10T16:04:44.423Z,43.33
2019-04-10T16:07:14.070Z,40.73
2019-04-10T16:09:47.679Z,60.37
2019-04-10T16:12:24.748Z,54.80
2019-04-10T16:14:53.456Z,44.23
2019-04-10T16:17:24.000Z,46.87
2019-04-10T16:20:03.955Z,49.40
2019-04-10T16:22:40.570Z,45.93
2019-04-10T16:25:11.628Z,44.27
2019-04-10T16:27:41.212Z,45.20
2019-04-10T16:30:15.963Z,44.87
2019-04-10T16:32:46.641Z,43.17
2019-04-10T16:35:15.739Z,41.83
2019-04-10T16:37:44.283Z,45.80
2019-04-10T16:40:13.252Z,41.37
2019-04-10T16:42:41.855Z,41.37
2019-04-10T16:45:10.794Z,38.43
2019-04-10T16:47:39.350Z,43.63
2019-04-10T16:50:09.163Z,39.40
2019-04-10T16:52:38.898Z,40.67
2019-04-10T16:55:08.653Z,41.60
2019-04-10T16:57:37.164Z,39.57
2019-04-10T17:00:08.193Z,39.90
2019-04-10T17:02:36.771Z,39.40
2019-04-10T17:05:08.090Z,36.93
2019-04-10T17:07:36.770Z,40.73
2019-04-10T17:10:14.020Z,42.27
2019-04-10T17:12:40.069Z,37.73
2019-04-10T17:15:10.295Z,37.60
2019-04-10T17:17:38.960Z,37.60
2019-04-10T17:20:08.615Z,36.40
2019-04-10T17:22:43.107Z,42.93
2019-04-10T17:25:07.601Z,40.07
2019-04-10T17:27:36.081Z,37.50
2019-04-10T17:30:07.346Z,38.83
2019-04-10T17:32:36.309Z,37.90
2019-04-10T17:35:09.384Z,38.50
2019-04-10T17:37:38.410Z,44.53
2019-04-10T17:40:08.870Z,40.23
2019-04-10T17:42:38.252Z,59.93
2019-04-10T17:45:08.112Z,57.03
2019-04-10T17:47:36.765Z,54.27
2019-04-10T17:50:07.727Z,45.10
2019-04-10T17:52:37.922Z,45.93
2019-04-10T17:55:07.869Z,45.90
2019-04-10T17:57:40.191Z,45.00
2019-04-10T18:00:11.074Z,40.37
2019-04-10T18:02:40.994Z,39.40
2019-04-10T18:05:10.600Z,38.93
2019-04-10T18:07:39.233Z,40.97
2019-04-10T18:10:08.550Z,38.57
2019-04-10T18:12:38.287Z,40.67
2019-04-10T18:15:08.194Z,41.10
2019-04-10T18:17:37.203Z,36.97
2019-04-10T18:20:06.366Z,40.40
2019-04-10T18:22:34.979Z,39.27
2019-04-10T18:25:04.153Z,40.17
2019-04-10T18:27:32.671Z,39.07
2019-04-10T18:30:01.153Z,40.73
2019-04-10T18:32:29.705Z,38.73
2019-04-10T18:34:58.355Z,38.33
2019-04-10T18:37:28.676Z,39.10
2019-04-10T18:39:57.140Z,40.30
2019-04-10T18:42:26.619Z,37.33
2019-04-10T18:44:55.476Z,40.97
2019-04-10T18:47:24.989Z,38.63
2019-04-10T18:49:53.993Z,39.17
2019-04-10T18:52:23.495Z,37.10
2019-04-10T18:54:52.094Z,35.37
2019-04-10T18:57:20.597Z,36.70
2019-04-10T19:00:10.229Z,33.97
2019-04-10T19:02:43.213Z,36.13
2019-04-10T19:05:25.661Z,37.73
2019-04-10T19:07:54.472Z,35.70
2019-04-10T19:10:23.219Z,36.53
2019-04-10T19:12:52.781Z,36.80
2019-04-10T19:15:22.437Z,33.53
2019-04-10T19:17:51.023Z,37.37
2019-04-10T19:20:19.533Z,35.80
2019-04-10T19:22:48.675Z,32.50
2019-04-10T19:25:18.672Z,32.60
2019-04-10T19:27:48.524Z,35.67
2019-04-10T19:30:31.075Z,33.70
2019-04-10T19:32:59.656Z,35.77
2019-04-10T19:35:28.804Z,33.03
2019-04-10T19:37:57.464Z,34.00
2019-04-10T19:40:25.984Z,33.47
2019-04-10T19:42:54.566Z,34.50
2019-04-10T19:45:23.729Z,29.73
2019-04-10T19:47:52.817Z,32.47
2019-04-10T19:50:21.468Z,30.87
2019-04-10T19:52:50.772Z,28.63
2019-04-10T19:55:19.833Z,30.97
2019-04-10T19:57:48.398Z,40.73
2019-04-10T20:00:19.936Z,34.97
2019-04-10T20:02:49.032Z,31.03
2019-04-10T20:05:17.957Z,30.17
2019-04-10T20:07:46.785Z,32.60
2019-04-10T20:10:15.432Z,31.37
2019-04-10T20:12:44.669Z,28.70
2019-04-10T20:15:14.131Z,32.20
2019-04-10T20:17:44.249Z,30.97
2019-04-10T20:20:13.158Z,29.60
2019-04-10T20:22:41.887Z,28.10
2019-04-10T20:25:10.625Z,30.13
2019-04-10T20:27:40.293Z,29.37
2019-04-10T20:30:09.894Z,30.17
2019-04-10T20:32:38.688Z,30.33
2019-04-10T20:35:07.869Z,32.23
2019-04-10T20:37:36.621Z,30.53
2019-04-10T20:40:06.591Z,30.73
2019-04-10T20:42:35.205Z,31.03
2019-04-10T20:45:07.264Z,30.40
2019-04-10T20:47:37.173Z,29.30
2019-04-10T20:50:07.894Z,28.87
2019-04-10T20:52:39.417Z,28.10
2019-04-10T20:55:07.504Z,28.80
2019-04-10T20:57:35.988Z,26.90
2019-04-10T21:00:07.417Z,24.93
2019-04-10T21:02:36.236Z,25.83
2019-04-10T21:05:09.517Z,27.13
2019-04-10T21:07:37.480Z,31.47
2019-04-10T21:10:06.927Z,26.93
2019-04-10T21:12:36.393Z,28.03
2019-04-10T21:15:06.283Z,28.70
2019-04-10T21:17:34.742Z,29.13
2019-04-10T21:20:05.551Z,27.17
2019-04-10T21:22:34.183Z,29.80
2019-04-10T21:25:02.921Z,26.57
2019-04-10T21:27:32.070Z,29.33
2019-04-10T21:30:05.301Z,28.50
2019-04-10T21:32:41.384Z,26.00
2019-04-10T21:35:11.731Z,33.40
2019-04-10T21:37:40.371Z,25.60
2019-04-10T21:40:10.152Z,27.93
2019-04-10T21:42:39.183Z,25.10
2019-04-10T21:45:09.537Z,27.50
2019-04-10T21:47:38.141Z,25.90
2019-04-10T21:50:08.864Z,26.97
2019-04-10T21:52:37.524Z,24.30
2019-04-10T21:55:07.001Z,27.10
2019-04-10T21:57:35.794Z,26.17
2019-04-10T22:00:09.985Z,24.10
2019-04-10T22:02:38.715Z,27.57
2019-04-10T22:05:08.215Z,25.10
2019-04-10T22:07:38.488Z,26.10
2019-04-10T22:10:09.894Z,23.27
2019-04-10T22:12:43.553Z,22.17
2019-04-10T22:15:10.785Z,26.97
2019-04-10T22:17:40.394Z,23.30
2019-04-10T22:20:09.613Z,24.70
2019-04-10T22:22:39.207Z,24.10
2019-04-10T22:25:09.067Z,24.03
2019-04-10T22:27:37.563Z,23.67
2019-04-10T22:30:08.350Z,25.43
2019-04-10T22:32:37.278Z,23.57
2019-04-10T22:35:06.889Z,24.17
2019-04-10T22:37:35.607Z,22.20
2019-04-10T22:40:06.579Z,22.17
2019-04-10T22:42:42.462Z,23.67
2019-04-10T22:45:14.329Z,22.67
2019-04-10T22:47:43.487Z,22.30
2019-04-10T22:50:12.764Z,23.93
2019-04-10T22:52:42.225Z,24.00
2019-04-10T22:55:11.216Z,23.47
2019-04-10T22:57:41.095Z,23.73
2019-04-10T23:00:13.658Z,21.37
2019-04-10T23:02:42.493Z,24.83
2019-04-10T23:05:12.004Z,22.03
2019-04-10T23:07:40.588Z,23.37
2019-04-10T23:10:13.201Z,22.13
2019-04-10T23:12:52.014Z,20.07
2019-04-10T23:15:13.863Z,25.20
2019-04-10T23:17:43.191Z,22.50
2019-04-10T23:20:12.343Z,20.57
2019-04-10T23:22:41.045Z,22.63
2019-04-10T23:25:10.215Z,20.87
2019-04-10T23:27:38.740Z,21.83
2019-04-10T23:30:09.229Z,22.77
2019-04-10T23:32:37.797Z,20.87
2019-04-10T23:35:07.342Z,20.10
2019-04-10T23:37:37.323Z,20.00
2019-04-10T23:40:06.319Z,20.90
2019-04-10T23:42:35.730Z,22.80
2019-04-10T23:45:05.175Z,20.40
2019-04-10T23:47:34.079Z,21.17
2019-04-10T23:50:02.743Z,18.77
2019-04-10T23:52:31.847Z,24.07
2019-04-10T23:55:00.459Z,21.60
2019-04-10T23:57:29.489Z,20.83
2019-04-10T23:59:59.070Z,26.50
